createdAt,value
2016-05-03T00:00:18.349Z,38.37
2016-05-03T00:01:18.321Z,38.18
2016-05-03T00:02:18.308Z,38.37
2016-05-03T00:03:18.279Z,38.47
2016-05-03T00:04:18.266Z,38.28
2016-05-03T00:05:18.254Z,38.28
2016-05-03T00:06:18.225Z,38.37
2016-05-03T00:07:18.306Z,38.37
2016-05-03T00:08:18.199Z,38.28
2016-05-03T00:09:18.186Z,38.37
2016-05-03T00:10:18.158Z,38.37
2016-05-03T00:11:18.145Z,38.37
2016-05-03T00:12:18.132Z,38.28
2016-05-03T00:13:18.104Z,38.37
2016-05-03T00:14:18.090Z,38.37
2016-05-03T00:15:18.078Z,38.28
2016-05-03T00:16:18.065Z,38.37
2016-05-03T00:17:18.036Z,38.37
2016-05-03T00:18:18.023Z,38.37
2016-05-03T00:19:17.854Z,38.37
2016-05-03T00:20:17.982Z,38.56
2016-05-03T00:21:17.969Z,38.47
2016-05-03T00:22:18.128Z,38.56
2016-05-03T00:23:17.928Z,38.66
2016-05-03T00:24:17.914Z,38.56
2016-05-03T00:25:17.887Z,38.56
2016-05-03T00:26:17.874Z,38.37
2016-05-03T00:27:17.862Z,38.76
2016-05-03T00:28:17.863Z,38.47
2016-05-03T00:29:17.850Z,38.37
2016-05-03T00:30:17.794Z,38.37
2016-05-03T00:31:17.781Z,38.47
2016-05-03T00:32:17.769Z,38.47
2016-05-03T00:33:17.757Z,38.66
2016-05-03T00:34:17.727Z,38.28
2016-05-03T00:35:17.729Z,38.47
2016-05-03T00:36:17.702Z,38.37
2016-05-03T00:37:17.688Z,38.28
2016-05-03T00:38:17.663Z,38.37
2016-05-03T00:39:17.650Z,38.47
2016-05-03T00:40:17.637Z,38.47
2016-05-03T00:41:17.609Z,38.37
2016-05-03T00:42:17.595Z,38.56
2016-05-03T00:43:17.568Z,38.47
2016-05-03T00:44:17.554Z,38.56
2016-05-03T00:45:17.541Z,38.66
2016-05-03T00:46:17.528Z,38.56
2016-05-03T00:47:17.343Z,38.66
2016-05-03T00:48:17.487Z,38.37
2016-05-03T00:49:17.459Z,38.47
2016-05-03T00:50:17.445Z,38.37
2016-05-03T00:51:17.276Z,38.56
2016-05-03T00:52:17.435Z,38.66
2016-05-03T00:53:17.391Z,38.47
2016-05-03T00:54:17.378Z,38.37
2016-05-03T00:55:17.365Z,38.56
2016-05-03T00:56:17.352Z,38.47
2016-05-03T00:57:17.323Z,38.37
2016-05-03T00:58:17.311Z,38.56
2016-05-03T00:59:17.282Z,38.47
2016-05-03T01:00:17.285Z,38.37
2016-05-03T01:01:17.256Z,38.47
2016-05-03T01:02:17.071Z,38.47
2016-05-03T01:03:17.215Z,38.47
2016-05-03T01:04:17.202Z,38.56
2016-05-03T01:05:17.188Z,38.47
2016-05-03T01:06:17.161Z,38.37
2016-05-03T01:07:18.022Z,38.47
2016-05-03T01:08:16.978Z,38.66
2016-05-03T01:09:17.105Z,38.56
2016-05-03T01:10:17.094Z,38.47
2016-05-03T01:11:16.923Z,38.47
2016-05-03T01:12:17.052Z,38.37
2016-05-03T01:13:17.054Z,38.56
2016-05-03T01:14:17.025Z,38.66
2016-05-03T01:15:16.841Z,38.47
2016-05-03T01:16:16.984Z,38.28
2016-05-03T01:17:16.971Z,38.37
2016-05-03T01:18:16.958Z,38.37
2016-05-03T01:19:16.930Z,38.47
2016-05-03T01:20:16.917Z,38.56
2016-05-03T01:21:16.904Z,38.66
2016-05-03T01:22:17.047Z,38.56
2016-05-03T01:23:16.862Z,38.56
2016-05-03T01:24:16.834Z,38.47
2016-05-03T01:25:16.821Z,38.47
2016-05-03T01:26:16.808Z,38.76
2016-05-03T01:27:16.889Z,38.56
2016-05-03T01:28:16.767Z,38.37
2016-05-03T01:29:16.753Z,38.37
2016-05-03T01:30:16.725Z,38.47
2016-05-03T01:31:16.711Z,38.56
2016-05-03T01:32:16.559Z,38.66
2016-05-03T01:33:16.686Z,38.47
2016-05-03T01:34:16.673Z,38.47
2016-05-03T01:35:16.895Z,38.37
2016-05-03T01:36:16.632Z,38.47
2016-05-03T01:37:16.635Z,38.66
2016-05-03T01:38:16.606Z,38.66
2016-05-03T01:39:16.577Z,38.47
2016-05-03T01:40:16.393Z,38.66
2016-05-03T01:41:16.536Z,38.56
2016-05-03T01:42:16.539Z,38.56
2016-05-03T01:43:16.901Z,38.56
2016-05-03T01:44:16.482Z,38.56
2016-05-03T01:45:16.312Z,38.76
2016-05-03T01:46:16.455Z,38.47
2016-05-03T01:47:16.427Z,38.76
2016-05-03T01:48:16.415Z,38.56
2016-05-03T01:49:16.401Z,38.56
2016-05-03T01:50:16.388Z,38.76
2016-05-03T01:51:16.969Z,38.56
2016-05-03T01:52:16.768Z,38.76
2016-05-03T01:53:16.335Z,38.76
2016-05-03T01:54:16.321Z,39.04
2016-05-03T01:55:16.292Z,38.56
2016-05-03T01:56:16.280Z,38.76
2016-05-03T01:57:16.251Z,38.76
2016-05-03T01:58:16.237Z,38.66
2016-05-03T01:59:16.225Z,38.56
2016-05-03T02:00:16.197Z,38.56
2016-05-03T02:01:16.028Z,38.85
2016-05-03T02:02:16.155Z,38.56
2016-05-03T02:03:16.158Z,38.66
2016-05-03T02:04:16.129Z,38.56
2016-05-03T02:05:16.101Z,38.66
2016-05-03T02:06:15.948Z,38.66
2016-05-03T02:07:16.183Z,38.66
2016-05-03T02:08:16.062Z,38.56
2016-05-03T02:09:16.049Z,38.85
2016-05-03T02:10:16.020Z,38.76
2016-05-03T02:11:16.008Z,38.66
2016-05-03T02:12:15.994Z,38.56
2016-05-03T02:13:15.966Z,38.56
2016-05-03T02:14:15.953Z,38.85
2016-05-03T02:15:16.237Z,38.76
2016-05-03T02:16:15.911Z,38.56
2016-05-03T02:17:15.899Z,38.47
2016-05-03T02:18:15.885Z,38.66
2016-05-03T02:19:15.857Z,38.56
2016-05-03T02:20:15.844Z,38.56
2016-05-03T02:21:15.832Z,38.47
2016-05-03T02:22:15.709Z,39.04
2016-05-03T02:23:16.227Z,38.76
2016-05-03T02:24:15.776Z,38.76
2016-05-03T02:25:15.764Z,38.56
2016-05-03T02:26:15.735Z,38.47
2016-05-03T02:27:15.723Z,38.85
2016-05-03T02:28:15.709Z,38.47
2016-05-03T02:29:15.681Z,38.47
2016-05-03T02:30:15.918Z,39.14
2016-05-03T02:31:15.640Z,38.76
2016-05-03T02:32:15.626Z,38.95
2016-05-03T02:33:15.613Z,38.76
2016-05-03T02:34:15.601Z,39.14
2016-05-03T02:35:15.572Z,38.76
2016-05-03T02:36:15.559Z,38.76
2016-05-03T02:37:15.546Z,38.95
2016-05-03T02:38:15.878Z,38.76
2016-05-03T02:39:15.505Z,38.76
2016-05-03T02:40:15.491Z,38.56
2016-05-03T02:41:15.478Z,38.76
2016-05-03T02:42:15.450Z,38.95
2016-05-03T02:43:15.438Z,38.76
2016-05-03T02:44:15.425Z,39.04
2016-05-03T02:45:15.396Z,38.85
2016-05-03T02:46:15.836Z,38.76
2016-05-03T02:47:15.370Z,38.95
2016-05-03T02:48:15.357Z,39.04
2016-05-03T02:49:15.329Z,38.76
2016-05-03T02:50:15.315Z,38.76
2016-05-03T02:51:15.288Z,38.85
2016-05-03T02:52:15.290Z,38.85
2016-05-03T02:53:15.261Z,39.04
2016-05-03T02:54:15.889Z,39.24
2016-05-03T02:55:15.221Z,38.85
2016-05-03T02:56:15.207Z,39.14
2016-05-03T02:57:15.194Z,39.24
2016-05-03T02:58:15.166Z,38.66
2016-05-03T02:59:15.152Z,38.95
2016-05-03T03:00:14.968Z,39.14
2016-05-03T03:01:15.111Z,39.04
2016-05-03T03:02:14.989Z,38.76
2016-05-03T03:03:15.085Z,38.76
2016-05-03T03:04:14.916Z,38.76
2016-05-03T03:05:15.043Z,39.04
2016-05-03T03:06:15.015Z,38.66
2016-05-03T03:07:15.393Z,39.62
2016-05-03T03:08:15.005Z,38.85
2016-05-03T03:09:14.975Z,39.33
2016-05-03T03:10:15.151Z,39.14
2016-05-03T03:11:14.934Z,39.14
2016-05-03T03:12:14.937Z,39.14
2016-05-03T03:13:14.893Z,39.14
2016-05-03T03:14:14.740Z,39.33
2016-05-03T03:15:14.867Z,38.95
2016-05-03T03:16:14.855Z,39.81
2016-05-03T03:17:14.826Z,39.33
2016-05-03T03:18:15.157Z,38.95
2016-05-03T03:19:14.800Z,39.43
2016-05-03T03:20:14.787Z,39.04
2016-05-03T03:21:14.758Z,39.33
2016-05-03T03:22:14.761Z,39.43
2016-05-03T03:23:14.733Z,39.14
2016-05-03T03:24:14.704Z,39.33
2016-05-03T03:25:14.691Z,39.53
2016-05-03T03:26:14.678Z,39.33
2016-05-03T03:27:14.649Z,39.24
2016-05-03T03:28:14.637Z,38.95
2016-05-03T03:29:14.655Z,39.53
2016-05-03T03:30:14.611Z,39.14
2016-05-03T03:31:14.599Z,39.33
2016-05-03T03:32:14.570Z,39.14
2016-05-03T03:33:14.541Z,39.04
2016-05-03T03:34:14.528Z,39.43
2016-05-03T03:35:14.515Z,39.43
2016-05-03T03:36:14.487Z,39.24
2016-05-03T03:37:14.333Z,39.81
2016-05-03T03:38:14.461Z,39.24
2016-05-03T03:39:14.432Z,39.04
2016-05-03T03:40:14.262Z,39.24
2016-05-03T03:41:14.250Z,39.04
2016-05-03T03:42:14.393Z,39.53
2016-05-03T03:43:14.381Z,39.53
2016-05-03T03:44:14.196Z,39.62
2016-05-03T03:45:14.338Z,39.43
2016-05-03T03:46:14.325Z,39.24
2016-05-03T03:47:14.297Z,39.81
2016-05-03T03:48:14.284Z,39.72
2016-05-03T03:49:14.271Z,39.81
2016-05-03T03:50:14.244Z,39.04
2016-05-03T03:51:14.230Z,39.04
2016-05-03T03:52:14.577Z,39.43
2016-05-03T03:53:14.188Z,39.53
2016-05-03T03:54:14.191Z,38.85
2016-05-03T03:55:14.162Z,39.62
2016-05-03T03:56:14.135Z,39.24
2016-05-03T03:57:14.121Z,39.24
2016-05-03T03:58:13.951Z,39.43
2016-05-03T03:59:14.095Z,39.43
2016-05-03T04:00:14.066Z,39.72
2016-05-03T04:01:14.054Z,39.14
2016-05-03T04:02:14.041Z,38.85
2016-05-03T04:03:14.012Z,39.72
2016-05-03T04:04:13.999Z,39.53
2016-05-03T04:05:13.987Z,39.14
2016-05-03T04:06:13.974Z,39.43
2016-05-03T04:07:14.039Z,39.72
2016-05-03T04:08:13.931Z,39.53
2016-05-03T04:09:13.919Z,39.14
2016-05-03T04:10:13.890Z,39.53
2016-05-03T04:11:13.893Z,39.24
2016-05-03T04:12:13.865Z,39.62
2016-05-03T04:13:13.837Z,40.01
2016-05-03T04:14:13.822Z,39.53
2016-05-03T04:15:13.810Z,39.33
2016-05-03T04:16:13.781Z,39.14
2016-05-03T04:17:13.769Z,39.33
2016-05-03T04:18:13.756Z,39.14
2016-05-03T04:19:13.742Z,39.62
2016-05-03T04:20:13.714Z,39.62
2016-05-03T04:21:13.706Z,40.01
2016-05-03T04:22:14.130Z,39.62
2016-05-03T04:23:13.758Z,40.01
2016-05-03T04:24:13.807Z,39.43
2016-05-03T04:25:13.825Z,39.43
2016-05-03T04:26:13.839Z,39.62
2016-05-03T04:27:13.844Z,39.62
2016-05-03T04:28:13.846Z,39.72
2016-05-03T04:29:13.678Z,39.62
2016-05-03T04:30:13.854Z,39.72
2016-05-03T04:31:13.840Z,39.53
2016-05-03T04:32:13.817Z,39.53
2016-05-03T04:33:13.827Z,39.33
2016-05-03T04:34:13.805Z,40.3
2016-05-03T04:35:13.783Z,39.24
2016-05-03T04:36:13.774Z,39.53
2016-05-03T04:37:13.764Z,39.04
2016-05-03T04:38:13.738Z,40.11
2016-05-03T04:39:13.727Z,40.01
2016-05-03T04:40:13.717Z,39.81
2016-05-03T04:41:13.706Z,39.72
2016-05-03T04:42:13.678Z,39.53
2016-05-03T04:43:13.666Z,40.01
2016-05-03T04:44:13.654Z,39.72
2016-05-03T04:45:13.642Z,39.24
2016-05-03T04:46:13.630Z,39.62
2016-05-03T04:47:13.601Z,39.04
2016-05-03T04:48:13.589Z,39.53
2016-05-03T04:49:13.576Z,39.62
2016-05-03T04:50:13.548Z,40.11
2016-05-03T04:51:13.535Z,39.24
2016-05-03T04:52:13.601Z,39.91
2016-05-03T04:53:13.493Z,40.2
2016-05-03T04:54:13.528Z,39.24
2016-05-03T04:55:13.468Z,39.53
2016-05-03T04:56:13.455Z,39.43
2016-05-03T04:57:13.426Z,39.33
2016-05-03T04:58:13.414Z,39.43
2016-05-03T04:59:13.385Z,39.72
2016-05-03T05:00:13.372Z,39.72
2016-05-03T05:01:13.343Z,39.53
2016-05-03T05:02:13.487Z,39.72
2016-05-03T05:03:13.318Z,40.01
2016-05-03T05:04:13.289Z,39.91
2016-05-03T05:05:13.276Z,39.53
2016-05-03T05:06:13.106Z,39.33
2016-05-03T05:07:14.828Z,39.91
2016-05-03T05:08:13.237Z,39.72
2016-05-03T05:09:13.209Z,40.2
2016-05-03T05:10:13.508Z,39.33
2016-05-03T05:11:13.167Z,39.72
2016-05-03T05:12:13.155Z,39.72
2016-05-03T05:13:13.141Z,39.81
2016-05-03T05:14:13.113Z,39.91
2016-05-03T05:15:13.100Z,40.58
2016-05-03T05:16:12.930Z,40.3
2016-05-03T05:17:13.058Z,39.72
2016-05-03T05:18:13.499Z,40.97
2016-05-03T05:19:13.032Z,40.68
2016-05-03T05:20:13.019Z,40.11
2016-05-03T05:21:12.851Z,39.72
2016-05-03T05:22:12.838Z,39.91
2016-05-03T05:23:12.965Z,40.3
2016-05-03T05:24:12.937Z,39.81
2016-05-03T05:25:12.940Z,40.2
2016-05-03T05:26:13.520Z,39.91
2016-05-03T05:27:12.898Z,40.2
2016-05-03T05:28:12.884Z,40.58
2016-05-03T05:29:12.856Z,40.3
2016-05-03T05:30:12.843Z,40.2
2016-05-03T05:31:12.659Z,40.01
2016-05-03T05:32:12.801Z,40.11
2016-05-03T05:33:12.789Z,39.72
2016-05-03T05:34:12.823Z,40.11
2016-05-03T05:35:12.747Z,40.01
2016-05-03T05:36:12.734Z,39.81
2016-05-03T05:37:12.722Z,40.3
2016-05-03T05:38:12.708Z,39.62
2016-05-03T05:39:12.681Z,40.01
2016-05-03T05:40:12.667Z,39.81
2016-05-03T05:41:12.654Z,39.72
2016-05-03T05:42:12.797Z,39.81
2016-05-03T05:43:12.613Z,39.43
2016-05-03T05:44:12.599Z,39.53
2016-05-03T05:45:12.586Z,39.81
2016-05-03T05:46:12.558Z,39.91
2016-05-03T05:47:12.546Z,39.81
2016-05-03T05:48:12.532Z,39.72
2016-05-03T05:49:12.347Z,40.01
2016-05-03T05:50:12.788Z,40.01
2016-05-03T05:51:12.478Z,39.81
2016-05-03T05:52:12.449Z,39.81
2016-05-03T05:53:12.437Z,39.81
2016-05-03T05:54:12.424Z,40.58
2016-05-03T05:55:12.254Z,39.72
2016-05-03T05:56:12.382Z,39.62
2016-05-03T05:57:12.260Z,40.11
2016-05-03T05:58:12.809Z,40.49
2016-05-03T05:59:12.328Z,39.81
2016-05-03T06:00:12.315Z,39.81
2016-05-03T06:01:12.301Z,39.53
2016-05-03T06:02:12.132Z,40.3
2016-05-03T06:03:12.259Z,40.78
2016-05-03T06:04:12.248Z,40.88
2016-05-03T06:05:12.438Z,41.06
2016-05-03T06:06:12.206Z,40.2
2016-05-03T06:07:12.208Z,40.11
2016-05-03T06:08:12.180Z,39.91
2016-05-03T06:09:12.151Z,40.39
2016-05-03T06:10:12.139Z,40.49
2016-05-03T06:11:12.126Z,40.2
2016-05-03T06:12:12.097Z,41.06
2016-05-03T06:13:12.427Z,40.78
2016-05-03T06:14:12.072Z,40.88
2016-05-03T06:15:12.058Z,41.35
2016-05-03T06:16:12.045Z,41.06
2016-05-03T06:17:12.017Z,40.3
2016-05-03T06:18:12.005Z,40.01
2016-05-03T06:19:11.991Z,40.78
2016-05-03T06:20:11.978Z,40.49
2016-05-03T06:21:12.449Z,40.97
2016-05-03T06:22:11.936Z,41.16
2016-05-03T06:23:11.908Z,40.01
2016-05-03T06:24:11.896Z,40.97
2016-05-03T06:25:11.866Z,40.11
2016-05-03T06:26:11.853Z,40.11
2016-05-03T06:27:11.841Z,41.06
2016-05-03T06:28:11.827Z,40.88
2016-05-03T06:29:12.455Z,40.3
2016-05-03T06:30:11.787Z,40.3
2016-05-03T06:31:11.773Z,40.3
2016-05-03T06:32:11.745Z,41.06
2016-05-03T06:33:11.732Z,39.62
2016-05-03T06:34:11.718Z,41.26
2016-05-03T06:35:11.706Z,41.26
2016-05-03T06:36:11.678Z,40.3
2016-05-03T06:37:12.181Z,40.78
2016-05-03T06:38:11.635Z,40.97
2016-05-03T06:39:11.639Z,40.58
2016-05-03T06:40:11.453Z,41.26
2016-05-03T06:41:11.597Z,40.88
2016-05-03T06:42:11.584Z,41.45
2016-05-03T06:43:11.556Z,40.39
2016-05-03T06:44:11.542Z,40.3
2016-05-03T06:45:11.732Z,40.97
2016-05-03T06:46:11.500Z,41.35
2016-05-03T06:47:11.488Z,41.45
2016-05-03T06:48:11.475Z,40.39
2016-05-03T06:49:11.291Z,40.68
2016-05-03T06:50:11.449Z,40.97
2016-05-03T06:51:11.421Z,41.06
2016-05-03T06:52:11.455Z,40.97
2016-05-03T06:53:11.738Z,41.35
2016-05-03T06:54:11.366Z,40.88
2016-05-03T06:55:11.337Z,40.88
2016-05-03T06:56:11.325Z,41.55
2016-05-03T06:57:11.327Z,41.26
2016-05-03T06:58:11.283Z,40.97
2016-05-03T06:59:11.271Z,40.88
2016-05-03T07:00:11.257Z,41.45
2016-05-03T07:01:11.229Z,41.55
2016-05-03T07:02:11.216Z,41.45
2016-05-03T07:03:11.203Z,41.35
2016-05-03T07:04:11.190Z,41.64
2016-05-03T07:05:11.177Z,41.26
2016-05-03T07:06:11.149Z,41.35
2016-05-03T07:07:11.354Z,40.88
2016-05-03T07:08:11.107Z,41.83
2016-05-03T07:09:11.094Z,40.97
2016-05-03T07:10:11.081Z,41.35
2016-05-03T07:11:11.068Z,40.78
2016-05-03T07:12:11.056Z,41.74
2016-05-03T07:13:11.028Z,41.06
2016-05-03T07:14:11.014Z,41.35
2016-05-03T07:15:11.001Z,41.55
2016-05-03T07:16:10.972Z,41.74
2016-05-03T07:17:10.959Z,41.74
2016-05-03T07:18:10.931Z,41.45
2016-05-03T07:19:10.918Z,42.22
2016-05-03T07:20:10.905Z,40.88
2016-05-03T07:21:10.892Z,41.06
2016-05-03T07:22:11.036Z,41.93
2016-05-03T07:23:10.848Z,41.83
2016-05-03T07:24:10.835Z,41.83
2016-05-03T07:25:10.807Z,41.74
2016-05-03T07:26:10.794Z,41.93
2016-05-03T07:27:10.780Z,42.22
2016-05-03T07:28:10.752Z,41.55
2016-05-03T07:29:10.582Z,40.78
2016-05-03T07:30:10.727Z,42.6
2016-05-03T07:31:10.698Z,42.03
2016-05-03T07:32:10.529Z,42.12
2016-05-03T07:33:10.672Z,41.74
2016-05-03T07:34:10.643Z,42.5
2016-05-03T07:35:10.630Z,41.26
2016-05-03T07:36:10.617Z,42.22
2016-05-03T07:37:10.448Z,42.6
2016-05-03T07:38:10.576Z,41.55
2016-05-03T07:39:10.578Z,42.5
2016-05-03T07:40:10.535Z,42.7
2016-05-03T07:41:10.521Z,42.12
2016-05-03T07:42:10.509Z,42.6
2016-05-03T07:43:10.481Z,42.7
2016-05-03T07:44:10.311Z,42.5
2016-05-03T07:45:10.454Z,42.5
2016-05-03T07:46:10.425Z,41.55
2016-05-03T07:47:10.412Z,41.64
2016-05-03T07:48:10.400Z,41.72
2016-05-03T07:49:10.387Z,41.6
2016-05-03T07:50:10.358Z,41.99
2016-05-03T07:51:10.330Z,41.6
2016-05-03T07:52:10.317Z,41.87
2016-05-03T07:53:10.303Z,41.96
2016-05-03T07:54:10.291Z,42.16
2016-05-03T07:55:10.263Z,42.73
2016-05-03T07:56:10.250Z,41.58
2016-05-03T07:57:10.236Z,42.16
2016-05-03T07:58:10.207Z,41.77
2016-05-03T07:59:10.194Z,41.96
2016-05-03T08:00:10.166Z,41.87
2016-05-03T08:01:10.169Z,41.77
2016-05-03T08:02:10.141Z,41.96
2016-05-03T08:03:10.113Z,42.52
2016-05-03T08:04:10.099Z,42.64
2016-05-03T08:05:09.930Z,42.44
2016-05-03T08:06:10.074Z,41.77
2016-05-03T08:07:10.045Z,41.96
2016-05-03T08:08:10.032Z,42.23
2016-05-03T08:09:09.847Z,42.44
2016-05-03T08:10:09.990Z,42.52
2016-05-03T08:11:09.976Z,42.35
2016-05-03T08:12:09.949Z,42.43
2016-05-03T08:13:09.936Z,42.43
2016-05-03T08:14:09.906Z,42.81
2016-05-03T08:15:09.895Z,42.54
2016-05-03T08:16:09.865Z,42.33
2016-05-03T08:17:09.853Z,42.54
2016-05-03T08:18:09.840Z,42.52
2016-05-03T08:19:09.811Z,42.52
2016-05-03T08:20:09.798Z,42.43
2016-05-03T08:21:09.785Z,42.54
2016-05-03T08:22:09.772Z,42.16
2016-05-03T08:23:09.775Z,42.06
2016-05-03T08:24:09.731Z,41.89
2016-05-03T08:25:09.718Z,41.79
2016-05-03T08:26:09.689Z,41.41
2016-05-03T08:27:09.661Z,41.33
2016-05-03T08:28:09.663Z,41.14
2016-05-03T08:29:09.682Z,40.95
2016-05-03T08:30:09.466Z,40.95
2016-05-03T08:31:09.594Z,40.88
2016-05-03T08:32:09.580Z,40.97
2016-05-03T08:33:09.568Z,40.88
2016-05-03T08:34:09.554Z,41.06
2016-05-03T08:35:09.526Z,41.16
2016-05-03T08:36:09.357Z,41.06
2016-05-03T08:37:09.718Z,40.2
2016-05-03T08:38:09.471Z,40.58
2016-05-03T08:39:09.459Z,40.58
2016-05-03T08:40:09.445Z,40.49
2016-05-03T08:41:09.417Z,40.61
2016-05-03T08:42:09.404Z,40.12
2016-05-03T08:43:09.375Z,40.41
2016-05-03T08:44:09.378Z,40.39
2016-05-03T08:45:09.710Z,40.41
2016-05-03T08:46:09.321Z,40.61
2016-05-03T08:47:09.308Z,40.51
2016-05-03T08:48:09.312Z,40.03
2016-05-03T08:49:09.283Z,40.22
2016-05-03T08:50:09.269Z,40.31
2016-05-03T08:51:09.241Z,40.12
2016-05-03T08:52:09.228Z,40.31
2016-05-03T08:53:09.761Z,40.41
2016-05-03T08:54:09.202Z,40.41
2016-05-03T08:55:09.174Z,40.31
2016-05-03T08:56:09.145Z,40.31
2016-05-03T08:57:09.148Z,40.41
2016-05-03T08:58:09.135Z,40.22
2016-05-03T08:59:09.091Z,40.31
2016-05-03T09:00:09.094Z,40.31
2016-05-03T09:01:09.768Z,40.31
2016-05-03T09:02:09.052Z,40.22
2016-05-03T09:03:09.038Z,40.31
2016-05-03T09:04:09.026Z,39.93
2016-05-03T09:05:08.997Z,40.31
2016-05-03T09:06:08.985Z,40.22
2016-05-03T09:07:08.956Z,40.22
2016-05-03T09:08:08.974Z,40.12
2016-05-03T09:09:08.977Z,40.12
2016-05-03T09:10:08.917Z,40.03
2016-05-03T09:11:08.888Z,40.12
2016-05-03T09:12:08.876Z,40.41
2016-05-03T09:13:08.848Z,39.64
2016-05-03T09:14:08.834Z,39.74
2016-05-03T09:15:08.821Z,40.51
2016-05-03T09:16:08.808Z,40.51
2016-05-03T09:17:09.045Z,40.31
2016-05-03T09:18:08.767Z,40.31
2016-05-03T09:19:08.753Z,40.03
2016-05-03T09:20:08.741Z,40.03
2016-05-03T09:21:08.728Z,40.03
2016-05-03T09:22:08.699Z,40.03
2016-05-03T09:23:08.889Z,40.12
2016-05-03T09:24:08.673Z,40.31
2016-05-03T09:25:09.020Z,40.22
2016-05-03T09:26:08.632Z,39.83
2016-05-03T09:27:08.619Z,39.83
2016-05-03T09:28:08.591Z,40.22
2016-05-03T09:29:08.578Z,40.31
2016-05-03T09:30:08.564Z,40.03
2016-05-03T09:31:08.552Z,39.83
2016-05-03T09:32:08.679Z,39.74
2016-05-03T09:33:08.526Z,40.03
2016-05-03T09:34:08.496Z,40.31
2016-05-03T09:35:08.485Z,39.83
2016-05-03T09:36:08.455Z,40.51
2016-05-03T09:37:08.443Z,39.64
2016-05-03T09:38:09.633Z,40.03
2016-05-03T09:39:08.401Z,40.31
2016-05-03T09:40:08.638Z,40.03
2016-05-03T09:41:08.376Z,39.93
2016-05-03T09:42:08.346Z,39.64
2016-05-03T09:43:08.349Z,39.16
2016-05-03T09:44:08.165Z,40.22
2016-05-03T09:45:08.137Z,39.93
2016-05-03T09:46:08.279Z,39.36
2016-05-03T09:47:08.267Z,39.74
2016-05-03T09:48:08.692Z,39.64
2016-05-03T09:49:08.240Z,39.16
2016-05-03T09:50:08.212Z,38.78
2016-05-03T09:51:08.183Z,39.16
2016-05-03T09:52:08.031Z,39.26
2016-05-03T09:53:08.017Z,39.06
2016-05-03T09:54:08.144Z,39.16
2016-05-03T09:55:08.132Z,38.87
2016-05-03T09:56:08.713Z,38.68
2016-05-03T09:57:08.091Z,38.68
2016-05-03T09:58:08.078Z,38.29
2016-05-03T09:59:08.064Z,38.87
2016-05-03T10:00:08.067Z,39.16
2016-05-03T10:01:08.022Z,38.68
2016-05-03T10:02:08.011Z,38.49
2016-05-03T10:03:07.982Z,38.87
2016-05-03T10:04:07.968Z,38.78
2016-05-03T10:05:07.783Z,38.78
2016-05-03T10:06:07.927Z,39.36
2016-05-03T10:07:07.913Z,39.26
2016-05-03T10:08:08.448Z,38.97
2016-05-03T10:09:07.732Z,38.49
2016-05-03T10:10:07.859Z,38.87
2016-05-03T10:11:07.846Z,38.78
2016-05-03T10:12:07.974Z,38.78
2016-05-03T10:13:07.821Z,38.87
2016-05-03T10:14:07.792Z,38.97
2016-05-03T10:15:07.779Z,38.78
2016-05-03T10:16:07.610Z,39.16
2016-05-03T10:17:07.738Z,38.87
2016-05-03T10:18:07.725Z,39.06
2016-05-03T10:19:07.712Z,38.78
2016-05-03T10:20:07.948Z,39.16
2016-05-03T10:21:07.671Z,38.59
2016-05-03T10:22:07.658Z,38.78
2016-05-03T10:23:07.503Z,38.68
2016-05-03T10:24:07.631Z,38.87
2016-05-03T10:25:07.619Z,39.06
2016-05-03T10:26:07.590Z,38.87
2016-05-03T10:27:07.578Z,39.16
2016-05-03T10:28:08.002Z,39.16
2016-05-03T10:29:07.536Z,39.26
2016-05-03T10:30:07.523Z,38.87
2016-05-03T10:31:07.510Z,39.36
2016-05-03T10:32:07.481Z,38.87
2016-05-03T10:33:07.469Z,39.36
2016-05-03T10:34:07.455Z,39.26
2016-05-03T10:35:07.443Z,38.87
2016-05-03T10:36:07.430Z,38.87
2016-05-03T10:37:07.402Z,38.97
2016-05-03T10:38:07.388Z,38.78
2016-05-03T10:39:07.360Z,38.78
2016-05-03T10:40:07.363Z,38.68
2016-05-03T10:41:07.334Z,38.97
2016-05-03T10:42:07.321Z,38.68
2016-05-03T10:43:07.308Z,38.78
2016-05-03T10:44:07.138Z,39.26
2016-05-03T10:45:07.266Z,38.87
2016-05-03T10:46:07.254Z,39.36
2016-05-03T10:47:07.225Z,38.68
2016-05-03T10:48:07.212Z,39.06
2016-05-03T10:49:07.198Z,38.97
2016-05-03T10:50:07.186Z,39.06
2016-05-03T10:51:07.157Z,39.36
2016-05-03T10:52:07.145Z,39.06
2016-05-03T10:53:06.976Z,39.06
2016-05-03T10:54:07.103Z,39.16
2016-05-03T10:55:07.105Z,39.54
2016-05-03T10:56:07.062Z,39.83
2016-05-03T10:57:07.064Z,38.78
2016-05-03T10:58:07.051Z,38.87
2016-05-03T10:59:07.023Z,38.97
2016-05-03T11:00:07.010Z,39.16
2016-05-03T11:01:06.981Z,39.06
2016-05-03T11:02:06.984Z,38.87
2016-05-03T11:03:06.955Z,39.06
2016-05-03T11:04:06.927Z,38.78
2016-05-03T11:05:06.914Z,38.97
2016-05-03T11:06:06.901Z,38.39
2016-05-03T11:07:06.888Z,38.97
2016-05-03T11:08:06.875Z,39.64
2016-05-03T11:09:06.862Z,39.16
2016-05-03T11:10:06.834Z,39.36
2016-05-03T11:11:06.821Z,38.87
2016-05-03T11:12:06.807Z,38.87
2016-05-03T11:13:06.780Z,38.59
2016-05-03T11:14:06.609Z,38.29
2016-05-03T11:15:06.753Z,39.16
2016-05-03T11:16:06.740Z,39.45
2016-05-03T11:17:06.712Z,39.06
2016-05-03T11:18:06.699Z,39.54
2016-05-03T11:19:06.686Z,39.45
2016-05-03T11:20:06.673Z,39.06
2016-05-03T11:21:06.644Z,39.45
2016-05-03T11:22:06.476Z,39.64
2016-05-03T11:23:06.618Z,39.54
2016-05-03T11:24:06.590Z,39.06
2016-05-03T11:25:06.578Z,39.93
2016-05-03T11:26:06.564Z,39.06
2016-05-03T11:27:06.551Z,38.97
2016-05-03T11:28:06.523Z,39.26
2016-05-03T11:29:06.509Z,39.16
2016-05-03T11:30:06.481Z,38.87
2016-05-03T11:31:06.469Z,39.26
2016-05-03T11:32:06.455Z,39.06
2016-05-03T11:33:06.442Z,39.16
2016-05-03T11:34:06.414Z,38.68
2016-05-03T11:35:06.400Z,38.78
2016-05-03T11:36:06.388Z,38.87
2016-05-03T11:37:06.375Z,38.7
2016-05-03T11:38:06.190Z,38.78
2016-05-03T11:39:06.333Z,38.68
2016-05-03T11:40:06.305Z,38.68
2016-05-03T11:41:06.135Z,38.7
2016-05-03T11:42:06.280Z,39.06
2016-05-03T11:43:06.266Z,38.68
2016-05-03T11:44:06.254Z,39.09
2016-05-03T11:45:06.085Z,39.16
2016-05-03T11:46:06.227Z,39.16
2016-05-03T11:47:06.198Z,39.74
2016-05-03T11:48:06.185Z,39.36
2016-05-03T11:49:06.157Z,39.06
2016-05-03T11:50:06.145Z,38.87
2016-05-03T11:51:06.132Z,39.26
2016-05-03T11:52:05.946Z,39.06
2016-05-03T11:53:06.434Z,39.16
2016-05-03T11:54:06.092Z,39.45
2016-05-03T11:55:06.065Z,39.06
2016-05-03T11:56:06.051Z,39.54
2016-05-03T11:57:06.023Z,39.26
2016-05-03T11:58:06.009Z,39.16
2016-05-03T11:59:05.997Z,38.68
2016-05-03T12:00:05.968Z,38.78
2016-05-03T12:01:05.955Z,38.7
2016-05-03T12:02:05.787Z,38.7
2016-05-03T12:03:06.930Z,38.7
2016-05-03T12:04:05.916Z,38.7
2016-05-03T12:05:05.903Z,38.51
2016-05-03T12:06:05.719Z,39.66
2016-05-03T12:07:05.847Z,38.51
2016-05-03T12:08:06.569Z,38.7
2016-05-03T12:09:05.836Z,38.41
2016-05-03T12:10:05.808Z,38.43
2016-05-03T12:11:06.889Z,38.31
2016-05-03T12:12:05.797Z,38.41
2016-05-03T12:13:05.753Z,38.6
2016-05-03T12:14:05.724Z,38.41
2016-05-03T12:15:05.556Z,38.79
2016-05-03T12:16:05.543Z,38.31
2016-05-03T12:17:05.685Z,38.99
2016-05-03T12:18:05.532Z,38.31
2016-05-03T12:19:15.176Z,38.41
2016-05-03T12:20:05.647Z,38.79
2016-05-03T12:21:05.619Z,38.79
2016-05-03T12:22:05.449Z,38.7
2016-05-03T12:23:05.593Z,38.89
2016-05-03T12:24:05.565Z,38.79
2016-05-03T12:25:05.396Z,38.79
2016-05-03T12:26:05.382Z,38.7
2016-05-03T12:27:05.525Z,38.79
2016-05-03T12:28:05.497Z,38.79
2016-05-03T12:29:05.484Z,35.81
2016-05-03T12:30:05.455Z,34.06
2016-05-03T12:31:05.458Z,34.45
2016-05-03T12:32:05.445Z,34.54
2016-05-03T12:33:05.261Z,34.54
2016-05-03T12:34:05.389Z,34.72
2016-05-03T12:35:05.375Z,33.66
2016-05-03T12:36:05.361Z,33.66
2016-05-03T12:37:05.177Z,34.62
2016-05-03T12:38:05.758Z,33.37
2016-05-03T12:39:05.370Z,32.89
2016-05-03T12:40:05.295Z,33.47
2016-05-03T12:41:05.110Z,33.08
2016-05-03T12:42:05.253Z,33.08
2016-05-03T12:43:05.224Z,33.08
2016-05-03T12:44:05.211Z,32.51
2016-05-03T12:45:05.198Z,33.08
2016-05-03T12:46:05.186Z,32.51
2016-05-03T12:47:05.158Z,32.31
2016-05-03T12:48:05.144Z,32.04
2016-05-03T12:49:05.132Z,30.79
2016-05-03T12:50:05.102Z,30.02
2016-05-03T12:51:05.105Z,30.4
2016-05-03T12:52:05.076Z,29.25
2016-05-03T12:53:05.064Z,28.09
2016-05-03T12:54:05.035Z,28.86